KCKC

Grand Marais / Cook County Airport

Grand Marais, Minnesota, USA
METAR KCKC 232035Z AUTO 36007KT 10SM SCT035 05/M05 A3032 RMK AO2
Observed Flight Rules
Oct-23 @ 20:35 UTC (24 minutes ago) Visual Flight Rules
Wind Visibility Clouds
360° at 7 knots 10 miles
  • Scattered at 3,500' AGL
Temperatures Readings
Current 5°C / 41°F
Dewpoint -5°C / 23°F
Humidity 49%
Altimeter 30.32" Hg
Pressure 1027 hPa
Elevation 548
METAR KCKC 232035Z AUTO 36007KT 10SM SCT035 05/M05 A3032 RMK AO2
Observed Flight Rules
Oct-23 @ 20:35 UTC
(24 minutes ago)
VFR
Wind Visibility
360° at 7 knots 10 miles
Clouds
  • Scattered at 3,500' AGL
Temperature Dewpoint
5°C / 41°F -5°C / 23°F
Humidity Altimeter Pressure
49% 30.32" Hg 1027 hPa